Airport View

Enter AWOS ICAO identifier for current METAR.

ex. KFNL

KSGR 202353Z 12009KT 10SM FEW025 28/23 A2998 RMK AO2 SLP154 60000 T02780233 10328 20261 55001

21 Sep 2019 00:25

Frequency: 118.125

Phone: 281-242-7605

Other Area AWOS: KIWS - KMCJ - KTME - KHOU

TAF KSGR 202322Z 2100/2124 11005KT P6SM VCSH FEW040 BKN110 TEMPO 2100/2101 VRB20KT 6SM SHRA BKN040 FM210100 12006KT P6SM SCT025 SCT250 FM211400 12006KT P6SM SCT015 BKN025 FM211600 13012KT P6SM SCT025 BKN035 PROB30 2116/2120 SHRA FM212100 13013KT P6SM SCT035 BKN250